Ansted, West Virginia
Current Conditions -  °F | °C
As of 1:51 PM on Monday 22 Dec 2014 (Local Time) from KBKW Reporting Station
Overcast Overcast  
Wind Chill: 36°   Ceiling: 1200
Heat Index: 41°   Visibility: 10mi
Dew Point: 34°   Wind: 7mph
Humidity: 76%   Direction: 120°ESE
Pressure: 29.97"   Gusts: NA
Location:  38.14°N, 81.1°W
Report Text: KBKW 221851Z AUTO 12006KT 10SM OVC012 05/01 A2997 RMK AO2 SLP165 T00500011
Loading
Personal Weather Stations






























Interactive Weather Map New forecast layout! Learn more

10-Day Weather Forecast

Advertisements
Track Severe Weather on mobile